createdAt,value
2019-03-29T00:02:20.975Z,12.33
2019-03-29T00:04:52.963Z,14.03
2019-03-29T00:07:38.630Z,11.70
2019-03-29T00:09:59.111Z,12.60
2019-03-29T00:12:31.319Z,12.73
2019-03-29T00:15:03.203Z,12.80
2019-03-29T00:17:35.871Z,13.07
2019-03-29T00:20:08.607Z,12.20
2019-03-29T00:22:40.975Z,12.10
2019-03-29T00:25:12.885Z,12.10
2019-03-29T00:27:44.985Z,13.17
2019-03-29T00:30:16.807Z,12.60
2019-03-29T00:32:48.851Z,13.63
2019-03-29T00:35:20.571Z,12.47
2019-03-29T00:37:54.936Z,13.20
2019-03-29T00:40:26.311Z,12.53
2019-03-29T00:42:58.451Z,13.27
2019-03-29T00:45:30.335Z,13.27
2019-03-29T00:48:02.479Z,13.87
2019-03-29T00:50:34.241Z,13.37
2019-03-29T00:53:06.104Z,13.53
2019-03-29T00:55:38.075Z,12.90
2019-03-29T00:58:10.032Z,12.87
2019-03-29T01:00:42.012Z,13.67
2019-03-29T01:03:13.872Z,12.40
2019-03-29T01:05:46.303Z,13.20
2019-03-29T01:08:19.444Z,13.70
2019-03-29T01:10:51.075Z,13.30
2019-03-29T01:13:22.895Z,13.47
2019-03-29T01:15:54.645Z,12.93
2019-03-29T01:18:26.669Z,13.87
2019-03-29T01:21:00.038Z,12.77
2019-03-29T01:23:32.040Z,13.67
2019-03-29T01:26:04.651Z,13.93
2019-03-29T01:28:36.993Z,13.40
2019-03-29T01:31:08.765Z,13.77
2019-03-29T01:33:41.125Z,14.20
2019-03-29T01:36:12.967Z,13.80
2019-03-29T01:38:45.039Z,14.70
2019-03-29T01:41:17.223Z,14.87
2019-03-29T01:43:49.481Z,14.13
2019-03-29T01:46:21.146Z,13.80
2019-03-29T01:48:53.716Z,13.87
2019-03-29T01:51:25.416Z,14.83
2019-03-29T01:53:57.238Z,13.33
2019-03-29T01:56:29.209Z,14.20
2019-03-29T01:59:01.264Z,14.40
2019-03-29T02:01:33.959Z,13.50
2019-03-29T02:04:08.046Z,14.30
2019-03-29T02:06:40.646Z,14.00
2019-03-29T02:09:13.317Z,14.60
2019-03-29T02:11:45.022Z,13.90
2019-03-29T02:14:17.864Z,14.37
2019-03-29T02:16:50.163Z,13.43
2019-03-29T02:19:22.411Z,14.27
2019-03-29T02:21:54.075Z,13.87
2019-03-29T02:24:26.022Z,14.17
2019-03-29T02:26:57.807Z,13.53
2019-03-29T02:29:30.048Z,14.90
2019-03-29T02:32:01.977Z,14.20
2019-03-29T02:34:34.298Z,14.30
2019-03-29T02:37:06.051Z,13.83
2019-03-29T02:39:37.943Z,14.33
2019-03-29T02:42:09.731Z,14.10
2019-03-29T02:44:41.736Z,13.53
2019-03-29T02:47:13.541Z,14.60
2019-03-29T02:49:45.553Z,14.20
2019-03-29T02:52:17.349Z,13.90
2019-03-29T02:54:49.380Z,13.73
2019-03-29T02:57:21.143Z,13.37
2019-03-29T02:59:53.373Z,13.37
2019-03-29T03:02:26.534Z,13.70
2019-03-29T03:04:58.976Z,13.90
2019-03-29T03:07:30.908Z,13.87
2019-03-29T03:10:02.911Z,13.33
2019-03-29T03:12:34.767Z,14.40
2019-03-29T03:15:08.080Z,13.67
2019-03-29T03:17:40.105Z,14.07
2019-03-29T03:20:15.359Z,14.10
2019-03-29T03:22:46.609Z,15.00
2019-03-29T03:25:19.210Z,14.43
2019-03-29T03:27:51.240Z,14.43
2019-03-29T03:30:23.533Z,14.40
2019-03-29T03:32:55.195Z,14.70
2019-03-29T03:35:27.305Z,15.53
2019-03-29T03:37:59.096Z,13.87
2019-03-29T03:40:31.294Z,13.90
2019-03-29T03:43:03.172Z,14.90
2019-03-29T03:45:35.500Z,15.47
2019-03-29T03:48:07.978Z,15.60
2019-03-29T03:50:43.890Z,15.93
2019-03-29T03:53:15.643Z,15.53
2019-03-29T03:55:47.984Z,15.97
2019-03-29T03:58:21.820Z,15.47
2019-03-29T04:01:00.520Z,15.40
2019-03-29T04:03:32.445Z,15.17
2019-03-29T04:06:04.371Z,15.07
2019-03-29T04:08:36.335Z,14.83
2019-03-29T04:11:08.119Z,15.03
2019-03-29T04:13:39.900Z,15.87
2019-03-29T04:16:12.096Z,15.30
2019-03-29T04:18:44.004Z,15.40
2019-03-29T04:21:16.123Z,15.20
2019-03-29T04:23:47.916Z,15.27
2019-03-29T04:26:20.235Z,14.90
2019-03-29T04:29:04.201Z,15.60
2019-03-29T04:31:26.752Z,15.97
2019-03-29T04:33:58.572Z,15.20
2019-03-29T04:36:30.365Z,16.40
2019-03-29T04:39:13.496Z,16.17
2019-03-29T04:41:45.352Z,14.97
2019-03-29T04:44:17.156Z,16.07
2019-03-29T04:46:49.302Z,15.67
2019-03-29T04:49:21.029Z,15.50
2019-03-29T04:51:53.016Z,16.00
2019-03-29T04:54:24.861Z,16.27
2019-03-29T04:56:57.043Z,16.60
2019-03-29T04:59:28.866Z,16.57
2019-03-29T05:02:00.896Z,16.13
2019-03-29T05:04:33.113Z,15.53
2019-03-29T05:07:04.940Z,15.63
2019-03-29T05:09:36.667Z,15.33
2019-03-29T05:12:08.722Z,15.60
2019-03-29T05:14:40.943Z,17.67
2019-03-29T05:17:12.944Z,16.63
2019-03-29T05:19:44.791Z,16.20
2019-03-29T05:22:18.231Z,17.00
2019-03-29T05:24:50.018Z,15.93
2019-03-29T05:27:40.612Z,16.97
2019-03-29T05:30:13.229Z,17.70
2019-03-29T05:32:45.524Z,18.63
2019-03-29T05:35:17.643Z,16.23
2019-03-29T05:37:49.669Z,16.80
2019-03-29T05:40:34.295Z,15.50
2019-03-29T05:42:55.335Z,16.70
2019-03-29T05:45:27.175Z,17.30
2019-03-29T05:47:59.269Z,16.77
2019-03-29T05:50:31.487Z,16.87
2019-03-29T05:53:03.702Z,17.00
2019-03-29T05:55:36.331Z,16.63
2019-03-29T05:58:08.543Z,17.00
2019-03-29T06:00:40.835Z,17.10
2019-03-29T06:03:13.136Z,17.10
2019-03-29T06:05:45.262Z,17.87
2019-03-29T06:08:17.832Z,16.83
2019-03-29T06:10:49.886Z,16.23
2019-03-29T06:13:22.494Z,17.00
2019-03-29T06:15:54.254Z,17.00
2019-03-29T06:18:26.195Z,16.30
2019-03-29T06:20:58.218Z,16.80
2019-03-29T06:23:30.263Z,17.70
2019-03-29T06:26:02.396Z,19.73
2019-03-29T06:28:34.881Z,20.40
2019-03-29T06:31:06.948Z,19.70
2019-03-29T06:33:39.332Z,21.03
2019-03-29T06:36:12.135Z,20.30
2019-03-29T06:38:46.023Z,20.67
2019-03-29T06:41:17.757Z,18.27
2019-03-29T06:43:49.642Z,21.40
2019-03-29T06:46:21.826Z,23.13
2019-03-29T06:48:54.277Z,19.20
2019-03-29T06:51:26.114Z,19.53
2019-03-29T06:53:58.206Z,18.50
2019-03-29T06:56:30.080Z,18.43
2019-03-29T06:59:02.131Z,18.57
2019-03-29T07:01:34.503Z,18.90
2019-03-29T07:04:06.680Z,18.07
2019-03-29T07:06:39.099Z,17.80
2019-03-29T07:09:11.535Z,18.47
2019-03-29T07:11:43.955Z,18.47
2019-03-29T07:14:16.211Z,17.57
2019-03-29T07:16:47.881Z,20.07
2019-03-29T07:19:20.515Z,20.20
2019-03-29T07:21:52.543Z,18.67
2019-03-29T07:24:29.459Z,18.27
2019-03-29T07:27:01.386Z,19.80
2019-03-29T07:29:33.903Z,18.13
2019-03-29T07:32:05.589Z,19.20
2019-03-29T07:34:37.724Z,18.67
2019-03-29T07:37:09.358Z,19.40
2019-03-29T07:39:41.341Z,19.83
2019-03-29T07:42:13.120Z,17.63
2019-03-29T07:44:45.070Z,18.30
2019-03-29T07:47:17.498Z,18.30
2019-03-29T07:49:49.712Z,18.13
2019-03-29T07:52:21.487Z,20.40
2019-03-29T07:54:53.448Z,20.10
2019-03-29T07:57:25.422Z,18.10
2019-03-29T07:59:57.671Z,19.70
2019-03-29T08:02:30.096Z,17.80
2019-03-29T08:05:02.416Z,17.10
2019-03-29T08:07:34.159Z,18.40
2019-03-29T08:10:06.649Z,19.60
2019-03-29T08:12:41.370Z,19.10
2019-03-29T08:15:13.655Z,19.43
2019-03-29T08:17:45.464Z,18.67
2019-03-29T08:20:38.793Z,18.00
2019-03-29T08:22:51.445Z,18.30
2019-03-29T08:25:23.775Z,17.63
2019-03-29T08:27:56.345Z,17.30
2019-03-29T08:30:28.502Z,17.60
2019-03-29T08:33:00.620Z,17.40
2019-03-29T08:35:32.757Z,17.30
2019-03-29T08:38:06.324Z,17.90
2019-03-29T08:40:38.407Z,17.83
2019-03-29T08:43:10.299Z,17.13
2019-03-29T08:45:43.545Z,17.30
2019-03-29T08:48:15.296Z,18.37
2019-03-29T08:50:47.803Z,18.63
2019-03-29T08:53:21.542Z,17.57
2019-03-29T08:56:04.769Z,18.37
2019-03-29T08:58:36.839Z,18.10
2019-03-29T09:01:09.185Z,16.13
2019-03-29T09:03:41.836Z,16.73
2019-03-29T09:06:14.344Z,17.13
2019-03-29T09:08:46.560Z,16.13
2019-03-29T09:11:18.795Z,17.00
2019-03-29T09:13:50.549Z,16.67
2019-03-29T09:16:22.600Z,17.60
2019-03-29T09:21:51.607Z,16.47
2019-03-29T09:24:23.909Z,15.83
2019-03-29T09:26:55.747Z,15.87
2019-03-29T09:29:27.690Z,15.60
2019-03-29T09:31:59.776Z,17.13
2019-03-29T09:34:31.895Z,15.93
2019-03-29T09:37:04.117Z,16.10
2019-03-29T09:39:35.773Z,15.60
2019-03-29T09:42:09.803Z,15.40
2019-03-29T09:44:53.338Z,14.93
2019-03-29T09:47:25.514Z,13.70
2019-03-29T09:49:57.866Z,14.70
2019-03-29T09:52:30.029Z,14.20
2019-03-29T09:55:01.807Z,14.63
2019-03-29T09:57:38.090Z,13.10
2019-03-29T10:00:19.074Z,13.03
2019-03-29T10:02:42.182Z,13.53
2019-03-29T10:05:14.249Z,13.40
2019-03-29T10:07:46.319Z,14.40
2019-03-29T10:10:18.890Z,13.70
2019-03-29T10:12:51.049Z,14.80
2019-03-29T10:15:22.884Z,14.37
2019-03-29T10:17:55.312Z,13.77
2019-03-29T10:20:27.183Z,13.20
2019-03-29T10:22:59.619Z,12.57
2019-03-29T10:25:31.704Z,13.03
2019-03-29T10:28:15.469Z,13.20
2019-03-29T10:30:47.443Z,13.80
2019-03-29T10:33:19.788Z,14.30
2019-03-29T10:35:52.933Z,12.13
2019-03-29T10:38:25.116Z,12.63
2019-03-29T10:40:57.049Z,12.40
2019-03-29T10:43:29.194Z,12.70
2019-03-29T10:46:00.883Z,12.93
2019-03-29T10:49:06.194Z,12.93
2019-03-29T10:51:48.984Z,13.67
2019-03-29T10:54:31.864Z,12.70
2019-03-29T10:57:03.686Z,12.13
2019-03-29T10:59:35.968Z,11.93
2019-03-29T11:05:42.852Z,13.53
2019-03-29T11:11:12.398Z,12.53
2019-03-29T11:13:44.403Z,12.90
2019-03-29T11:29:22.906Z,13.10
2019-03-29T11:32:12.530Z,13.43
2019-03-29T11:35:15.618Z,12.93
2019-03-29T11:37:47.427Z,13.37
2019-03-29T11:40:20.068Z,12.40
2019-03-29T11:43:10.595Z,13.50
2019-03-29T11:45:45.813Z,14.00
2019-03-29T12:02:08.503Z,13.50
2019-03-29T12:04:41.020Z,13.63
2019-03-29T12:07:13.104Z,12.80
2019-03-29T12:09:45.918Z,12.90
2019-03-29T12:12:18.373Z,13.37
2019-03-29T12:15:01.956Z,14.10
2019-03-29T12:20:59.175Z,12.03
2019-03-29T12:24:00.888Z,12.67
2019-03-29T12:26:33.114Z,12.53
2019-03-29T12:32:41.925Z,12.93
2019-03-29T12:35:14.446Z,12.40
2019-03-29T12:37:47.934Z,12.70
2019-03-29T12:59:32.865Z,11.80
2019-03-29T13:02:05.580Z,12.60
2019-03-29T13:04:37.688Z,12.77
2019-03-29T13:27:14.336Z,12.50
2019-03-29T13:36:10.792Z,11.47
2019-03-29T13:38:42.941Z,12.50
2019-03-29T13:41:14.935Z,11.70
2019-03-29T13:43:47.115Z,11.23
2019-03-29T13:46:19.148Z,11.23
2019-03-29T13:48:52.389Z,10.73
2019-03-29T13:51:24.327Z,10.70
2019-03-29T13:53:56.563Z,10.27
2019-03-29T13:56:28.999Z,10.53
2019-03-29T13:59:01.209Z,10.13
2019-03-29T14:01:44.745Z,11.63
2019-03-29T14:04:17.130Z,11.23
2019-03-29T14:06:59.832Z,11.63
2019-03-29T14:09:31.499Z,11.27
2019-03-29T14:12:04.001Z,10.60
2019-03-29T14:14:38.505Z,10.33
2019-03-29T14:17:10.475Z,9.47
2019-03-29T14:19:42.388Z,9.60
2019-03-29T14:22:14.605Z,9.20
2019-03-29T14:24:48.227Z,10.45
2019-03-29T14:27:20.293Z,10.30
2019-03-29T14:30:03.694Z,8.60
2019-03-29T14:32:26.351Z,8.50
2019-03-29T14:34:58.235Z,7.93
2019-03-29T14:37:30.593Z,8.37
2019-03-29T14:40:03.049Z,7.90
2019-03-29T14:42:35.234Z,8.00
2019-03-29T14:45:08.771Z,8.10
2019-03-29T14:47:43.535Z,7.70
2019-03-29T14:50:15.135Z,8.97
2019-03-29T14:52:47.285Z,8.90
2019-03-29T14:55:20.281Z,9.30
2019-03-29T14:57:52.350Z,8.17
2019-03-29T15:00:48.262Z,9.03
2019-03-29T15:03:18.289Z,9.50
2019-03-29T15:06:44.147Z,8.93
2019-03-29T15:09:16.178Z,9.30
2019-03-29T15:11:47.793Z,9.30
2019-03-29T15:14:23.151Z,8.93
2019-03-29T15:16:56.687Z,8.30
2019-03-29T15:19:29.154Z,8.60
2019-03-29T15:22:00.758Z,8.63
2019-03-29T15:27:59.955Z,7.80
2019-03-29T15:30:32.099Z,7.47
2019-03-29T15:33:04.990Z,8.27
2019-03-29T15:35:36.670Z,8.67
2019-03-29T15:38:09.219Z,8.13
2019-03-29T15:40:41.234Z,8.17
2019-03-29T15:43:13.554Z,7.53
2019-03-29T15:45:45.259Z,8.00
2019-03-29T15:48:17.895Z,7.73
2019-03-29T15:50:50.301Z,7.03
2019-03-29T15:57:10.596Z,8.10
2019-03-29T15:59:42.420Z,8.27
2019-03-29T16:02:15.642Z,8.20
2019-03-29T16:08:36.383Z,6.70
2019-03-29T16:11:09.299Z,7.90
2019-03-29T16:17:13.307Z,8.03
2019-03-29T16:19:45.207Z,8.07
2019-03-29T16:22:17.364Z,7.73
2019-03-29T16:24:49.520Z,8.50
2019-03-29T16:27:24.913Z,7.90
2019-03-29T16:29:55.938Z,7.10
2019-03-29T16:32:46.684Z,7.67
2019-03-29T16:35:18.348Z,6.60
2019-03-29T16:37:56.984Z,7.47
2019-03-29T16:40:24.548Z,7.50
2019-03-29T16:42:57.006Z,7.83
2019-03-29T16:45:28.676Z,7.53
2019-03-29T16:48:00.623Z,8.13
2019-03-29T16:50:32.436Z,8.07
2019-03-29T16:53:15.533Z,7.77
2019-03-29T16:55:47.442Z,6.90
2019-03-29T16:58:19.423Z,7.50
2019-03-29T17:04:17.431Z,7.23
2019-03-29T17:06:50.579Z,7.90
2019-03-29T17:09:22.795Z,7.10
2019-03-29T17:11:54.604Z,7.27
2019-03-29T17:34:02.617Z,6.37
2019-03-29T18:00:55.540Z,7.80
2019-03-29T18:13:17.742Z,9.07
2019-03-29T18:18:47.265Z,7.50
2019-03-29T18:21:20.600Z,8.57
2019-03-29T18:23:53.236Z,9.50
2019-03-29T18:26:25.394Z,10.50
2019-03-29T18:28:57.877Z,37.00
2019-03-29T18:31:29.742Z,14.93
2019-03-29T18:34:32.340Z,8.83
2019-03-29T18:37:24.753Z,9.60
2019-03-29T18:49:35.364Z,10.63
2019-03-29T18:52:08.438Z,10.63
2019-03-29T18:57:53.299Z,10.80
2019-03-29T19:03:52.836Z,12.70
2019-03-29T19:06:25.103Z,10.70
2019-03-29T19:08:57.260Z,9.97
2019-03-29T19:11:28.944Z,9.20
2019-03-29T19:14:01.671Z,9.30
2019-03-29T19:16:33.571Z,9.87
2019-03-29T19:19:10.218Z,8.73
2019-03-29T19:21:40.441Z,8.63
2019-03-29T19:24:12.730Z,9.33
2019-03-29T19:26:45.916Z,8.47
2019-03-29T19:29:20.139Z,9.27
2019-03-29T19:31:55.305Z,9.27
2019-03-29T19:34:25.612Z,9.80
2019-03-29T19:37:01.703Z,8.30
2019-03-29T19:39:34.240Z,9.30
2019-03-29T19:42:05.945Z,8.70
2019-03-29T19:44:41.970Z,9.73
2019-03-29T19:47:14.141Z,9.23
2019-03-29T19:53:11.687Z,8.70
2019-03-29T19:55:43.401Z,9.37
2019-03-29T19:58:17.107Z,9.00
2019-03-29T20:00:49.934Z,9.07
2019-03-29T20:03:21.960Z,8.90
2019-03-29T20:05:53.769Z,8.43
2019-03-29T20:08:25.938Z,9.20
2019-03-29T20:17:52.608Z,8.93
2019-03-29T20:20:26.270Z,9.50
2019-03-29T20:23:00.164Z,8.27
2019-03-29T20:25:31.920Z,9.00
2019-03-29T20:28:03.705Z,10.60
2019-03-29T20:30:36.046Z,11.57
2019-03-29T20:33:26.781Z,10.20
2019-03-29T20:35:58.810Z,10.27
2019-03-29T20:38:30.825Z,10.00
2019-03-29T20:41:02.809Z,11.37
2019-03-29T20:43:35.141Z,11.70
2019-03-29T20:49:32.002Z,10.50
2019-03-29T20:52:04.450Z,9.43
2019-03-29T20:54:36.350Z,11.67
2019-03-29T21:00:37.301Z,10.83
2019-03-29T21:03:09.552Z,10.60
2019-03-29T21:05:41.739Z,11.20
2019-03-29T21:08:13.741Z,10.37
2019-03-29T21:10:55.478Z,11.40
2019-03-29T21:13:21.053Z,12.10
2019-03-29T21:15:52.954Z,12.77
2019-03-29T21:18:41.918Z,13.20
2019-03-29T21:21:20.039Z,12.57
2019-03-29T21:24:05.232Z,11.93
2019-03-29T21:26:42.519Z,11.77
2019-03-29T21:29:14.444Z,11.30
2019-03-29T21:31:48.987Z,13.20
2019-03-29T21:34:38.275Z,11.47
2019-03-29T21:40:35.635Z,10.17
2019-03-29T21:43:07.427Z,10.30
2019-03-29T21:45:39.693Z,10.63
2019-03-29T21:48:28.232Z,10.90
2019-03-29T21:50:45.240Z,10.87
2019-03-29T21:53:16.977Z,10.17
2019-03-29T21:55:48.975Z,10.10
2019-03-29T21:58:20.919Z,10.67
2019-03-29T22:00:53.298Z,10.20
2019-03-29T22:03:25.086Z,10.77
2019-03-29T22:05:58.246Z,10.33
2019-03-29T22:08:29.929Z,10.30
2019-03-29T22:11:01.902Z,10.43
2019-03-29T22:13:34.021Z,10.67
2019-03-29T22:16:06.383Z,10.83
2019-03-29T22:18:38.415Z,11.00
2019-03-29T22:21:21.593Z,9.30
2019-03-29T22:23:53.479Z,10.23
2019-03-29T22:26:25.632Z,9.87
2019-03-29T22:28:57.349Z,10.83
2019-03-29T22:31:29.249Z,10.83
2019-03-29T22:34:01.091Z,10.33
2019-03-29T22:36:33.284Z,10.27
2019-03-29T22:39:07.359Z,11.50
2019-03-29T22:41:39.461Z,10.90
2019-03-29T22:44:11.196Z,11.53
2019-03-29T22:46:43.090Z,10.83
2019-03-29T22:49:15.217Z,10.60
2019-03-29T22:51:47.221Z,11.47
2019-03-29T22:54:19.008Z,11.20
2019-03-29T22:56:50.825Z,11.90
2019-03-29T22:59:22.604Z,11.90
2019-03-29T23:01:54.769Z,11.70
2019-03-29T23:04:26.396Z,12.97
2019-03-29T23:06:58.439Z,11.00
2019-03-29T23:09:30.541Z,11.00
2019-03-29T23:12:02.524Z,11.30
2019-03-29T23:14:34.535Z,13.03
2019-03-29T23:17:07.683Z,12.30
2019-03-29T23:19:39.328Z,12.73
2019-03-29T23:22:11.627Z,12.97
2019-03-29T23:24:43.435Z,12.67
2019-03-29T23:27:16.967Z,11.00
2019-03-29T23:29:48.752Z,11.70
2019-03-29T23:32:20.793Z,11.30
2019-03-29T23:34:52.546Z,11.57
2019-03-29T23:37:24.729Z,10.90
2019-03-29T23:39:56.498Z,11.00
2019-03-29T23:42:28.555Z,11.33
2019-03-29T23:45:00.546Z,11.60
2019-03-29T23:47:32.687Z,10.67
2019-03-29T23:50:04.788Z,10.90
2019-03-29T23:52:36.916Z,12.03
2019-03-29T23:55:09.145Z,10.17
2019-03-29T23:57:41.155Z,11.53
